Time;durP1;ratioP1;P1;durP2;ratioP2;P2;SDS_P1;SDS_P2;PMS_P1;PMS_P2;Temp;Humidity;BMP_temperature;BMP_pressure;BME280_temperature;BME280_humidity;BME280_pressure;Samples;Min_cycle;Max_cycle;Signal;HPM_P1;HPM_P2
2023/10/20 00:01:17;;;;;;;27.47;19.43;;;;;;;;;;5050513;28;20417;-59
2023/10/20 00:03:42;;;;;;;28.57;19.67;;;;;;;;;;5044824;28;20496;-58
2023/10/20 00:06:08;;;;;;;25.57;18.17;;;;;;;;;;5047244;28;20760;-58
2023/10/20 00:08:34;;;;;;;30.02;19.70;;;;;;;;;;5047449;28;20398;-58
2023/10/20 00:11:03;;;;;;;31.20;19.97;;;;;;;;;;5044300;28;20408;-58
2023/10/20 00:13:29;;;;;;;30.55;21.05;;;;;;;;;;5046848;28;21046;-58
2023/10/20 00:15:54;;;;;;;29.43;20.63;;;;;;;;;;5028622;28;20390;-58
2023/10/20 00:18:19;;;;;;;28.97;20.80;;;;;;;;;;5044789;28;20385;-59
2023/10/20 00:20:46;;;;;;;29.77;21.40;;;;;;;;;;5046426;28;20984;-58
2023/10/20 00:23:11;;;;;;;26.77;20.23;;;;;;;;;;5046232;28;20405;-59
2023/10/20 00:25:37;;;;;;;28.15;21.52;;;;;;;;;;5046445;28;20753;-58
2023/10/20 00:28:03;;;;;;;26.70;19.27;;;;;;;;;;5045213;28;20431;-58
2023/10/20 00:30:28;;;;;;;30.92;21.65;;;;;;;;;;5046216;28;20447;-58
2023/10/20 00:32:53;;;;;;;31.57;22.13;;;;;;;;;;5047324;28;20757;-59
2023/10/20 00:35:19;;;;;;;33.80;22.80;;;;;;;;;;5044098;28;20492;-59
2023/10/20 00:37:44;;;;;;;33.50;22.13;;;;;;;;;;5046623;28;20451;-58
2023/10/20 00:40:10;;;;;;;35.30;23.50;;;;;;;;;;5046593;28;20393;-58
2023/10/20 00:42:35;;;;;;;33.53;23.13;;;;;;;;;;5044202;28;20411;-58
2023/10/20 00:45:01;;;;;;;32.43;22.10;;;;;;;;;;5049339;28;20822;-58
2023/10/20 00:47:26;;;;;;;30.80;22.83;;;;;;;;;;5051325;28;20599;-58
2023/10/20 00:49:52;;;;;;;36.03;24.07;;;;;;;;;;5049994;28;20973;-58
2023/10/20 00:52:17;;;;;;;35.07;24.10;;;;;;;;;;5048669;28;20764;-58
2023/10/20 00:54:46;;;;;;;30.70;21.97;;;;;;;;;;5049679;28;20520;-58
2023/10/20 00:57:13;;;;;;;32.75;22.23;;;;;;;;;;5050531;28;20421;-59
2023/10/20 00:59:38;;;;;;;32.63;22.40;;;;;;;;;;5048001;28;20964;-58
2023/10/20 01:02:04;;;;;;;33.53;23.70;;;;;;;;;;5050317;28;20496;-58
2023/10/20 01:04:30;;;;;;;31.17;23.02;;;;;;;;;;5033301;28;20477;-58
2023/10/20 01:06:55;;;;;;;34.43;22.70;;;;;;;;;;5029053;28;20415;-58
2023/10/20 01:09:24;;;;;;;33.70;23.27;;;;;;;;;;5027998;28;20397;-58
2023/10/20 01:11:49;;;;;;;33.97;23.90;;;;;;;;;;5026210;28;20472;-58
2023/10/20 01:14:15;;;;;;;35.00;23.40;;;;;;;;;;5020370;28;20407;-58
2023/10/20 01:16:40;;;;;;;35.03;23.85;;;;;;;;;;5020884;28;20433;-58
2023/10/20 01:19:05;;;;;;;32.33;23.20;;;;;;;;;;5025695;28;20432;-58
2023/10/20 01:21:30;;;;;;;32.57;22.83;;;;;;;;;;5027456;28;20403;-58
2023/10/20 01:23:56;;;;;;;34.00;23.80;;;;;;;;;;5029547;28;20415;-58
2023/10/20 01:26:23;;;;;;;33.47;23.17;;;;;;;;;;5026960;28;20395;-58
2023/10/20 01:28:48;;;;;;;32.70;23.25;;;;;;;;;;5027505;28;20407;-58
2023/10/20 01:31:13;;;;;;;36.10;23.77;;;;;;;;;;5029096;28;20409;-58
2023/10/20 01:33:38;;;;;;;33.77;22.73;;;;;;;;;;5024083;28;20429;-58
2023/10/20 01:36:04;;;;;;;36.37;23.97;;;;;;;;;;5019911;28;20462;-58
2023/10/20 01:38:29;;;;;;;32.67;21.20;;;;;;;;;;5022420;28;20401;-58
2023/10/20 01:40:55;;;;;;;35.37;23.40;;;;;;;;;;5023260;28;20448;-58
2023/10/20 01:43:20;;;;;;;32.17;22.70;;;;;;;;;;5026403;28;20413;-58
2023/10/20 01:45:45;;;;;;;33.10;23.83;;;;;;;;;;5029039;28;20419;-58
2023/10/20 01:48:11;;;;;;;32.93;23.73;;;;;;;;;;5026636;28;20427;-58
2023/10/20 01:50:37;;;;;;;33.53;23.60;;;;;;;;;;5023371;28;20399;-58
2023/10/20 01:53:02;;;;;;;31.98;22.33;;;;;;;;;;5022687;28;21168;-59
2023/10/20 01:55:28;;;;;;;33.40;23.33;;;;;;;;;;5021468;28;20981;-58
2023/10/20 01:57:53;;;;;;;33.40;22.42;;;;;;;;;;5015881;28;20407;-58
2023/10/20 02:00:19;;;;;;;34.27;23.93;;;;;;;;;;5014837;28;20522;-58
2023/10/20 02:02:44;;;;;;;35.63;22.03;;;;;;;;;;5014673;28;20437;-58
2023/10/20 02:05:09;;;;;;;34.40;23.90;;;;;;;;;;5028886;28;21151;-58
2023/10/20 02:07:35;;;;;;;37.33;23.95;;;;;;;;;;5032158;28;20399;-58
2023/10/20 02:10:00;;;;;;;33.83;23.17;;;;;;;;;;5031430;28;20883;-59
2023/10/20 02:12:26;;;;;;;34.13;23.70;;;;;;;;;;5032397;28;20401;-58
2023/10/20 02:14:52;;;;;;;38.78;24.65;;;;;;;;;;5037794;28;20403;-58
2023/10/20 02:17:17;;;;;;;39.05;25.02;;;;;;;;;;5030998;28;20399;-58
2023/10/20 02:19:43;;;;;;;38.13;24.98;;;;;;;;;;5032316;28;20513;-58
2023/10/20 02:22:08;;;;;;;39.63;25.63;;;;;;;;;;5031860;28;20411;-58
2023/10/20 02:24:33;;;;;;;41.47;25.73;;;;;;;;;;5031543;28;20399;-58
2023/10/20 02:26:59;;;;;;;42.37;26.23;;;;;;;;;;5032366;28;20759;-58
2023/10/20 02:29:24;;;;;;;43.20;26.60;;;;;;;;;;5036434;28;20393;-58
2023/10/20 02:31:49;;;;;;;43.07;26.27;;;;;;;;;;5047762;28;20444;-58
2023/10/20 02:34:15;;;;;;;47.22;27.42;;;;;;;;;;5047311;28;20405;-58
2023/10/20 02:36:40;;;;;;;49.63;28.43;;;;;;;;;;5048842;28;20454;-58
2023/10/20 02:39:05;;;;;;;50.93;28.10;;;;;;;;;;5047805;28;20394;-58
2023/10/20 02:41:30;;;;;;;54.37;29.27;;;;;;;;;;5047377;28;20425;-58
2023/10/20 02:43:56;;;;;;;50.73;27.60;;;;;;;;;;5048184;28;20491;-58
2023/10/20 02:46:21;;;;;;;54.53;28.97;;;;;;;;;;5048750;28;20861;-58
2023/10/20 02:48:46;;;;;;;54.53;29.40;;;;;;;;;;5046132;28;20402;-58
2023/10/20 02:51:12;;;;;;;53.70;28.67;;;;;;;;;;5047666;28;20398;-58
2023/10/20 02:53:41;;;;;;;55.97;29.70;;;;;;;;;;5048677;28;20741;-58
2023/10/20 02:56:10;;;;;;;51.22;28.67;;;;;;;;;;5046402;28;20404;-58
2023/10/20 02:58:35;;;;;;;46.67;27.37;;;;;;;;;;5047122;28;20455;-58
2023/10/20 03:01:02;;;;;;;55.88;29.50;;;;;;;;;;5048223;28;20510;-58
2023/10/20 03:03:28;;;;;;;62.08;30.20;;;;;;;;;;5047141;28;20397;-58
2023/10/20 03:05:53;;;;;;;54.93;29.20;;;;;;;;;;5045712;28;20410;-58
2023/10/20 03:08:18;;;;;;;52.97;28.10;;;;;;;;;;5045612;28;20397;-58
2023/10/20 03:10:43;;;;;;;57.27;30.07;;;;;;;;;;5048193;28;20410;-58
2023/10/20 03:13:10;;;;;;;58.27;29.70;;;;;;;;;;5044009;28;20432;-58
2023/10/20 03:15:36;;;;;;;56.23;29.03;;;;;;;;;;5048247;28;21007;-58
2023/10/20 03:18:01;;;;;;;55.47;29.63;;;;;;;;;;5047655;28;20401;-59
2023/10/20 03:20:32;;;;;;;60.73;30.00;;;;;;;;;;5045488;28;20397;-58
2023/10/20 03:22:58;;;;;;;54.10;28.05;;;;;;;;;;5047473;28;20432;-58
2023/10/20 03:25:23;;;;;;;60.57;30.97;;;;;;;;;;5034706;28;20482;-58
2023/10/20 03:27:49;;;;;;;60.60;30.53;;;;;;;;;;5025212;28;20510;-58
2023/10/20 03:30:15;;;;;;;53.70;29.17;;;;;;;;;;5027058;28;20413;-58
2023/10/20 03:32:41;;;;;;;59.75;28.77;;;;;;;;;;5024989;28;20405;-58
2023/10/20 03:35:07;;;;;;;60.90;29.63;;;;;;;;;;5030367;28;20396;-58
2023/10/20 03:37:32;;;;;;;54.20;27.13;;;;;;;;;;5028374;28;20459;-58
2023/10/20 03:39:57;;;;;;;63.40;30.37;;;;;;;;;;5020947;28;20428;-58
2023/10/20 03:42:23;;;;;;;56.37;28.67;;;;;;;;;;5017721;28;21332;-58
2023/10/20 03:44:48;;;;;;;55.87;28.10;;;;;;;;;;5019716;28;20414;-58
2023/10/20 03:47:16;;;;;;;52.85;28.52;;;;;;;;;;5020920;28;20441;-58
2023/10/20 03:49:42;;;;;;;52.40;27.23;;;;;;;;;;5025005;28;21330;-58
2023/10/20 03:52:11;;;;;;;56.10;27.50;;;;;;;;;;5025997;28;20411;-58
2023/10/20 03:54:37;;;;;;;57.83;28.95;;;;;;;;;;5028543;28;20531;-58
2023/10/20 03:57:03;;;;;;;56.95;28.40;;;;;;;;;;5024250;28;20495;-58
2023/10/20 03:59:28;;;;;;;53.80;27.90;;;;;;;;;;5024853;28;20484;-58
2023/10/20 04:01:55;;;;;;;50.00;26.63;;;;;;;;;;5023467;28;20495;-58
2023/10/20 04:04:20;;;;;;;59.10;28.88;;;;;;;;;;5016404;28;20392;-58
2023/10/20 04:06:45;;;;;;;56.17;27.93;;;;;;;;;;5017185;28;20410;-58
2023/10/20 04:09:11;;;;;;;53.75;27.20;;;;;;;;;;5020159;28;20529;-58
2023/10/20 04:11:37;;;;;;;50.27;26.40;;;;;;;;;;5025599;28;20415;-58
2023/10/20 04:14:05;;;;;;;56.25;28.10;;;;;;;;;;5024658;28;20413;-58
2023/10/20 04:16:31;;;;;;;55.67;27.63;;;;;;;;;;5025385;28;20391;-58
2023/10/20 04:18:58;;;;;;;50.67;26.57;;;;;;;;;;5024974;28;20416;-58
2023/10/20 04:21:25;;;;;;;49.70;27.55;;;;;;;;;;5023656;28;20401;-58
2023/10/20 04:23:50;;;;;;;52.35;27.60;;;;;;;;;;5024176;28;20419;-58
2023/10/20 04:26:18;;;;;;;49.13;26.53;;;;;;;;;;5020155;28;20515;-58
2023/10/20 04:28:44;;;;;;;45.70;25.80;;;;;;;;;;5016903;28;20498;-58
2023/10/20 04:57:50;;;;;;;34.75;20.80;;;;;;;;;;5017582;28;20415;-58
2023/10/20 05:05:33;;;;;;;29.97;18.10;;;;;;;;;;5038003;28;20413;-58
2023/10/20 05:08:05;;;;;;;29.33;17.77;;;;;;;;;;5039195;28;20907;-58
2023/10/20 05:10:30;;;;;;;28.15;18.08;;;;;;;;;;5034120;28;20385;-58
2023/10/20 05:12:55;;;;;;;29.77;18.33;;;;;;;;;;5031138;28;20753;-58
2023/10/20 05:15:21;;;;;;;31.45;18.48;;;;;;;;;;5030563;28;20389;-58
2023/10/20 05:17:46;;;;;;;30.30;17.93;;;;;;;;;;5016632;28;20394;-58
2023/10/20 05:20:13;;;;;;;28.10;17.43;;;;;;;;;;5018630;28;20407;-58
2023/10/20 05:22:39;;;;;;;29.73;17.37;;;;;;;;;;5019223;28;20442;-58
2023/10/20 05:25:04;;;;;;;27.30;17.10;;;;;;;;;;5019145;28;20454;-58
2023/10/20 05:27:30;;;;;;;25.58;15.70;;;;;;;;;;5018808;28;20734;-58
2023/10/20 05:29:55;;;;;;;26.17;15.97;;;;;;;;;;5022166;28;20403;-58
2023/10/20 05:32:20;;;;;;;18.30;12.33;;;;;;;;;;5020447;28;20928;-58
2023/10/20 05:34:45;;;;;;;23.57;14.27;;;;;;;;;;5015751;28;20690;-58
2023/10/20 05:37:11;;;;;;;19.43;12.20;;;;;;;;;;5014732;28;20411;-58
2023/10/20 05:39:36;;;;;;;19.33;12.23;;;;;;;;;;5016682;28;20704;-58
2023/10/20 05:42:04;;;;;;;20.60;11.70;;;;;;;;;;5022821;28;20518;-59
2023/10/20 05:44:31;;;;;;;17.47;11.00;;;;;;;;;;5034461;28;20498;-58
2023/10/20 05:46:56;;;;;;;16.08;10.45;;;;;;;;;;5026477;28;20791;-58
2023/10/20 05:49:22;;;;;;;15.53;9.97;;;;;;;;;;5027085;28;20445;-58
2023/10/20 05:51:48;;;;;;;13.52;9.38;;;;;;;;;;5045595;28;20455;-58
2023/10/20 05:54:13;;;;;;;15.48;10.25;;;;;;;;;;5043908;28;20497;-58
2023/10/20 05:56:39;;;;;;;15.20;10.40;;;;;;;;;;5044873;28;21007;-58
2023/10/20 05:59:04;;;;;;;17.17;10.90;;;;;;;;;;5044593;28;20836;-59
2023/10/20 06:01:29;;;;;;;21.37;11.90;;;;;;;;;;5027948;28;20442;-58
2023/10/20 06:03:55;;;;;;;18.42;11.52;;;;;;;;;;5022941;28;20871;-58
2023/10/20 06:06:21;;;;;;;22.77;13.47;;;;;;;;;;5025798;28;20855;-58
2023/10/20 06:08:46;;;;;;;25.75;14.80;;;;;;;;;;5024491;28;20400;-58
2023/10/20 06:11:11;;;;;;;25.77;15.17;;;;;;;;;;5022755;28;20828;-58
2023/10/20 06:13:37;;;;;;;26.10;15.67;;;;;;;;;;5026175;28;20409;-57
2023/10/20 06:16:08;;;;;;;31.13;17.17;;;;;;;;;;5025367;28;20415;-57
2023/10/20 06:18:33;;;;;;;33.47;18.30;;;;;;;;;;5021636;28;20526;-58
2023/10/20 06:20:59;;;;;;;32.83;18.92;;;;;;;;;;5023023;28;20438;-58
2023/10/20 06:23:24;;;;;;;32.73;18.33;;;;;;;;;;5024842;28;20482;-57
2023/10/20 06:25:49;;;;;;;38.53;20.20;;;;;;;;;;5024451;28;20415;-57
2023/10/20 06:28:15;;;;;;;35.90;20.23;;;;;;;;;;5028694;28;20458;-58
2023/10/20 06:30:43;;;;;;;32.03;18.77;;;;;;;;;;5027054;28;20785;-58
2023/10/20 06:35:50;;;;;;;35.00;19.27;;;;;;;;;;5032382;28;20419;-58
2023/10/20 06:38:18;;;;;;;38.05;20.27;;;;;;;;;;5026954;28;20410;-58
2023/10/20 06:40:44;;;;;;;40.00;20.63;;;;;;;;;;5018774;28;20752;-58
2023/10/20 06:43:09;;;;;;;36.90;20.10;;;;;;;;;;5025109;28;20399;-58
2023/10/20 06:45:35;;;;;;;35.57;19.23;;;;;;;;;;5028302;28;20426;-57
2023/10/20 06:48:00;;;;;;;33.20;18.83;;;;;;;;;;5029004;28;20415;-57
2023/10/20 06:50:25;;;;;;;38.47;19.92;;;;;;;;;;5023926;28;20413;-58
2023/10/20 06:52:53;;;;;;;33.27;17.90;;;;;;;;;;5023122;28;20449;-58
2023/10/20 06:55:18;;;;;;;33.90;18.10;;;;;;;;;;5021460;28;20403;-58
2023/10/20 06:57:43;;;;;;;38.67;20.30;;;;;;;;;;5024177;28;20950;-58
2023/10/20 07:00:16;;;;;;;33.53;18.10;;;;;;;;;;5027959;28;20543;-58
2023/10/20 07:02:42;;;;;;;30.38;17.50;;;;;;;;;;5048320;28;20485;-58
2023/10/20 07:05:07;;;;;;;30.48;17.10;;;;;;;;;;5045773;28;20492;-58
2023/10/20 07:07:33;;;;;;;30.57;17.17;;;;;;;;;;5044777;28;20475;-58
2023/10/20 07:09:58;;;;;;;30.30;17.00;;;;;;;;;;5047292;28;20417;-59
2023/10/20 07:12:23;;;;;;;24.60;15.60;;;;;;;;;;5046709;28;20402;-58
2023/10/20 07:14:48;;;;;;;24.00;14.13;;;;;;;;;;5046122;28;20401;-58
2023/10/20 07:17:14;;;;;;;33.10;17.83;;;;;;;;;;5046391;28;20472;-59
2023/10/20 07:19:39;;;;;;;25.03;15.03;;;;;;;;;;5046160;28;20394;-58
2023/10/20 07:22:05;;;;;;;28.17;16.33;;;;;;;;;;5046512;28;20400;-59
2023/10/20 07:24:30;;;;;;;28.30;15.63;;;;;;;;;;5045691;28;20451;-58
2023/10/20 07:26:55;;;;;;;30.00;18.07;;;;;;;;;;5047256;28;20409;-58
2023/10/20 07:29:21;;;;;;;26.88;16.10;;;;;;;;;;5042837;28;20455;-58
2023/10/20 07:31:47;;;;;;;22.37;13.40;;;;;;;;;;5043448;28;20553;-58
2023/10/20 07:34:13;;;;;;;19.38;11.70;;;;;;;;;;5043525;28;20479;-58
2023/10/20 07:36:38;;;;;;;18.40;10.75;;;;;;;;;;5047821;28;20796;-58
2023/10/20 07:39:04;;;;;;;21.13;13.47;;;;;;;;;;5045198;28;20961;-58
2023/10/20 07:41:29;;;;;;;19.20;12.23;;;;;;;;;;5046563;28;20409;-58
2023/10/20 07:43:55;;;;;;;17.83;11.20;;;;;;;;;;5047752;28;20452;-58
2023/10/20 07:46:21;;;;;;;18.40;10.20;;;;;;;;;;5046162;28;20421;-58
2023/10/20 07:48:46;;;;;;;15.63;9.63;;;;;;;;;;5046079;28;20409;-58
2023/10/20 07:51:12;;;;;;;16.97;9.50;;;;;;;;;;5046787;28;20542;-58
2023/10/20 07:53:37;;;;;;;15.70;9.57;;;;;;;;;;5047005;28;20400;-58
2023/10/20 07:56:03;;;;;;;14.37;9.47;;;;;;;;;;5044349;28;20401;-58
2023/10/20 07:58:28;;;;;;;14.02;8.70;;;;;;;;;;5047932;28;20393;-58
2023/10/20 08:00:54;;;;;;;13.30;8.80;;;;;;;;;;5055295;28;20420;-58
2023/10/20 08:03:19;;;;;;;12.43;7.57;;;;;;;;;;5059364;28;20438;-58
2023/10/20 08:05:44;;;;;;;13.63;8.23;;;;;;;;;;5061727;28;20442;-58
2023/10/20 08:08:09;;;;;;;13.73;8.00;;;;;;;;;;5062470;28;20405;-58
2023/10/20 08:10:36;;;;;;;12.25;7.68;;;;;;;;;;5061146;28;20396;-58
2023/10/20 08:13:02;;;;;;;10.88;7.10;;;;;;;;;;5059420;28;20830;-59
2023/10/20 08:15:28;;;;;;;9.60;5.90;;;;;;;;;;5062063;28;20424;-58
2023/10/20 08:17:53;;;;;;;11.20;6.90;;;;;;;;;;5056708;28;20429;-58
2023/10/20 08:20:19;;;;;;;10.57;6.93;;;;;;;;;;5057370;28;20412;-58
2023/10/20 08:22:44;;;;;;;9.43;6.17;;;;;;;;;;5062858;28;20822;-58
2023/10/20 08:25:09;;;;;;;10.90;6.60;;;;;;;;;;5061818;28;20516;-58
2023/10/20 08:27:35;;;;;;;7.53;5.20;;;;;;;;;;5059494;28;20399;-58
2023/10/20 08:30:00;;;;;;;9.20;5.27;;;;;;;;;;5060940;28;20409;-60
2023/10/20 08:32:25;;;;;;;9.27;5.20;;;;;;;;;;5063373;28;21482;-58
2023/10/20 08:34:51;;;;;;;7.77;4.60;;;;;;;;;;5060887;28;20407;-58
2023/10/20 08:37:17;;;;;;;6.30;4.50;;;;;;;;;;5058894;28;20406;-58
2023/10/20 08:39:44;;;;;;;6.78;4.43;;;;;;;;;;5062761;28;20475;-58
2023/10/20 08:42:14;;;;;;;7.10;4.68;;;;;;;;;;5061704;28;20407;-58
2023/10/20 08:44:39;;;;;;;5.45;3.83;;;;;;;;;;5057103;28;20465;-58
2023/10/20 08:47:07;;;;;;;6.00;3.50;;;;;;;;;;5062795;28;20389;-58
2023/10/20 08:49:32;;;;;;;5.88;3.50;;;;;;;;;;5044052;28;20472;-58
2023/10/20 08:51:57;;;;;;;5.03;3.20;;;;;;;;;;5041723;28;20438;-58
2023/10/20 08:54:23;;;;;;;5.30;3.30;;;;;;;;;;5043435;28;20475;-58
2023/10/20 08:56:48;;;;;;;5.07;3.30;;;;;;;;;;5043942;28;20448;-58
2023/10/20 08:59:13;;;;;;;5.03;3.33;;;;;;;;;;5060372;28;20399;-58
2023/10/20 09:01:39;;;;;;;5.25;2.80;;;;;;;;;;5033678;28;20461;-58
2023/10/20 09:04:04;;;;;;;5.13;3.17;;;;;;;;;;5021208;28;20410;-58
2023/10/20 09:06:30;;;;;;;3.80;2.60;;;;;;;;;;5030971;28;20399;-58
2023/10/20 09:08:57;;;;;;;3.72;2.40;;;;;;;;;;5028796;28;20513;-58
2023/10/20 09:11:29;;;;;;;4.73;2.90;;;;;;;;;;5028842;28;20391;-58
2023/10/20 09:13:55;;;;;;;5.00;2.60;;;;;;;;;;5030878;28;20486;-58
2023/10/20 09:16:21;;;;;;;4.38;2.40;;;;;;;;;;5028277;28;20395;-58
2023/10/20 09:18:48;;;;;;;4.83;2.70;;;;;;;;;;5029460;28;20461;-58
2023/10/20 09:21:14;;;;;;;4.43;2.60;;;;;;;;;;5029606;28;20880;-58
2023/10/20 09:23:40;;;;;;;4.68;2.47;;;;;;;;;;5029740;28;20404;-58
2023/10/20 09:26:05;;;;;;;5.67;3.43;;;;;;;;;;5027037;28;20454;-58
2023/10/20 09:28:30;;;;;;;7.80;4.50;;;;;;;;;;5025848;28;20419;-59
2023/10/20 09:30:56;;;;;;;17.33;9.87;;;;;;;;;;5015796;28;20399;-58
2023/10/20 09:33:23;;;;;;;12.37;6.40;;;;;;;;;;5011247;28;20463;-59
2023/10/20 09:35:49;;;;;;;24.55;10.57;;;;;;;;;;5030458;28;20460;-59
2023/10/20 09:38:15;;;;;;;25.73;10.47;;;;;;;;;;5029927;28;20474;-59
2023/10/20 09:40:41;;;;;;;22.25;10.43;;;;;;;;;;5020922;28;20406;-59
2023/10/20 09:43:28;;;;;;;27.95;13.13;;;;;;;;;;5028915;28;20461;-59
2023/10/20 09:45:56;;;;;;;21.77;8.52;;;;;;;;;;5029231;28;20427;-59
2023/10/20 09:48:21;;;;;;;18.17;8.38;;;;;;;;;;5028597;28;20399;-59
2023/10/20 09:50:48;;;;;;;15.90;7.93;;;;;;;;;;5027458;28;20392;-59
2023/10/20 09:53:14;;;;;;;9.70;4.68;;;;;;;;;;5020657;28;20549;-59
2023/10/20 09:55:42;;;;;;;10.52;5.60;;;;;;;;;;5029687;28;20402;-59
2023/10/20 09:58:07;;;;;;;10.57;6.32;;;;;;;;;;5027794;28;20526;-59
2023/10/20 10:00:34;;;;;;;5.50;3.03;;;;;;;;;;5034526;28;20484;-59
2023/10/20 10:02:59;;;;;;;6.47;4.30;;;;;;;;;;5049807;28;20406;-59
2023/10/20 10:05:24;;;;;;;5.68;3.17;;;;;;;;;;5048054;28;20393;-58
2023/10/20 10:08:02;;;;;;;3.93;2.47;;;;;;;;;;5045499;28;20405;-58
2023/10/20 10:10:27;;;;;;;8.30;5.03;;;;;;;;;;5048423;28;20423;-58
2023/10/20 10:12:57;;;;;;;4.60;2.80;;;;;;;;;;5049391;28;20428;-58
2023/10/20 10:15:23;;;;;;;4.70;3.15;;;;;;;;;;5045295;28;20386;-58
2023/10/20 10:17:49;;;;;;;2.50;1.90;;;;;;;;;;5041869;28;20409;-58
2023/10/20 10:20:19;;;;;;;3.92;1.90;;;;;;;;;;5048820;28;20443;-58
2023/10/20 10:22:45;;;;;;;2.15;1.60;;;;;;;;;;5048437;28;20983;-58
2023/10/20 10:25:10;;;;;;;2.60;1.80;;;;;;;;;;5045597;28;20505;-58
2023/10/20 10:27:36;;;;;;;3.10;1.50;;;;;;;;;;5049553;28;20904;-58
2023/10/20 10:30:05;;;;;;;2.72;1.80;;;;;;;;;;5031454;28;20513;-58
2023/10/20 10:32:32;;;;;;;3.17;1.30;;;;;;;;;;5047310;28;20406;-58
2023/10/20 10:34:58;;;;;;;2.95;1.48;;;;;;;;;;5048225;28;20497;-58
2023/10/20 10:37:32;;;;;;;2.33;1.50;;;;;;;;;;5048874;28;20481;-58
2023/10/20 10:40:15;;;;;;;2.28;1.63;;;;;;;;;;5047651;28;20413;-58
2023/10/20 10:42:42;;;;;;;1.98;1.27;;;;;;;;;;5045361;28;20477;-57
2023/10/20 10:45:16;;;;;;;2.30;1.50;;;;;;;;;;5037642;28;20421;-58
2023/10/20 10:47:41;;;;;;;2.70;1.30;;;;;;;;;;5048655;28;20475;-58
2023/10/20 10:50:07;;;;;;;2.08;1.23;;;;;;;;;;5046282;28;20779;-58
2023/10/20 10:52:32;;;;;;;1.47;1.20;;;;;;;;;;5047808;28;20408;-58
2023/10/20 10:54:58;;;;;;;2.00;1.30;;;;;;;;;;5050148;28;20468;-58
2023/10/20 10:57:23;;;;;;;2.38;1.33;;;;;;;;;;5048877;28;20401;-58
2023/10/20 10:59:48;;;;;;;4.37;2.73;;;;;;;;;;5047648;28;20756;-58
2023/10/20 11:02:13;;;;;;;5.27;3.63;;;;;;;;;;5044204;28;20429;-58
2023/10/20 11:04:39;;;;;;;3.57;2.23;;;;;;;;;;5062679;28;20432;-58
2023/10/20 11:07:04;;;;;;;4.60;2.20;;;;;;;;;;5062390;28;20442;-58
2023/10/20 11:09:31;;;;;;;1.97;1.40;;;;;;;;;;5061086;28;20397;-58
2023/10/20 11:11:57;;;;;;;2.33;1.60;;;;;;;;;;5063266;28;20412;-57
2023/10/20 11:14:23;;;;;;;1.30;1.20;;;;;;;;;;5063760;28;20395;-57
2023/10/20 11:16:49;;;;;;;1.90;1.10;;;;;;;;;;5059293;28;20417;-58
2023/10/20 11:19:14;;;;;;;2.05;1.20;;;;;;;;;;5054491;28;20416;-57
2023/10/20 11:21:42;;;;;;;2.07;1.30;;;;;;;;;;5064164;28;20395;-58
2023/10/20 11:24:08;;;;;;;1.70;1.10;;;;;;;;;;5058945;28;20419;-57
2023/10/20 11:26:35;;;;;;;2.25;1.20;;;;;;;;;;5062347;28;20406;-57
2023/10/20 11:29:01;;;;;;;1.45;0.95;;;;;;;;;;5063638;28;20407;-60
2023/10/20 11:31:26;;;;;;;0.90;0.80;;;;;;;;;;5061489;28;20399;-58
2023/10/20 11:33:51;;;;;;;1.30;0.90;;;;;;;;;;5060736;28;20486;-57
2023/10/20 11:36:17;;;;;;;1.37;1.10;;;;;;;;;;5063591;28;20770;-57
2023/10/20 11:38:42;;;;;;;2.00;1.10;;;;;;;;;;5062470;28;20411;-57
2023/10/20 11:41:07;;;;;;;2.35;1.10;;;;;;;;;;5058247;28;20420;-57
2023/10/20 11:43:33;;;;;;;3.57;2.20;;;;;;;;;;5054461;28;20396;-57
2023/10/20 11:45:58;;;;;;;13.40;7.60;;;;;;;;;;5062724;28;20529;-57
2023/10/20 11:48:23;;;;;;;25.47;10.37;;;;;;;;;;5059699;28;21284;-57
2023/10/20 11:50:49;;;;;;;37.70;14.27;;;;;;;;;;5063032;28;20412;-57
2023/10/20 11:53:14;;;;;;;2.10;1.40;;;;;;;;;;5062764;28;20427;-57
2023/10/20 11:55:39;;;;;;;1.43;1.20;;;;;;;;;;5061161;28;20391;-57
2023/10/20 11:58:05;;;;;;;1.47;0.73;;;;;;;;;;5060358;28;20399;-57
2023/10/20 12:00:30;;;;;;;1.40;0.70;;;;;;;;;;5052358;28;20415;-57
2023/10/20 12:02:55;;;;;;;0.73;0.70;;;;;;;;;;5027306;28;20410;-57
2023/10/20 12:05:23;;;;;;;1.20;0.75;;;;;;;;;;5024287;28;22447;-57
2023/10/20 12:07:49;;;;;;;2.00;1.00;;;;;;;;;;5026867;28;20416;-57
2023/10/20 12:10:15;;;;;;;1.00;0.70;;;;;;;;;;5026919;28;20404;-57
2023/10/20 12:12:40;;;;;;;1.00;0.80;;;;;;;;;;5025690;28;20450;-57
2023/10/20 12:15:07;;;;;;;1.03;0.90;;;;;;;;;;5025317;28;20775;-58
2023/10/20 12:17:32;;;;;;;1.98;0.70;;;;;;;;;;5027493;28;20890;-57
2023/10/20 12:19:58;;;;;;;0.97;0.77;;;;;;;;;;5026629;28;20418;-57
2023/10/20 12:22:23;;;;;;;0.80;0.60;;;;;;;;;;5025257;28;20412;-57
2023/10/20 12:24:48;;;;;;;1.30;0.80;;;;;;;;;;5027348;28;20806;-57
2023/10/20 12:27:14;;;;;;;1.60;0.80;;;;;;;;;;5026509;28;20422;-56
2023/10/20 12:29:39;;;;;;;1.40;0.67;;;;;;;;;;5024744;28;20425;-57
2023/10/20 12:32:04;;;;;;;2.73;1.60;;;;;;;;;;5026033;28;20414;-57
2023/10/20 12:34:31;;;;;;;1.30;0.83;;;;;;;;;;5026579;28;20469;-57
2023/10/20 12:36:59;;;;;;;1.33;1.00;;;;;;;;;;5025004;28;20407;-57
2023/10/20 12:39:25;;;;;;;1.55;1.20;;;;;;;;;;5025837;28;20957;-57
2023/10/20 12:41:51;;;;;;;1.90;0.95;;;;;;;;;;5026575;28;20402;-57
2023/10/20 12:44:18;;;;;;;1.60;0.95;;;;;;;;;;5025281;28;20472;-57
2023/10/20 12:46:44;;;;;;;3.28;1.45;;;;;;;;;;5025559;28;20465;-57
2023/10/20 12:49:09;;;;;;;2.10;1.63;;;;;;;;;;5026096;28;20403;-58
2023/10/20 12:51:34;;;;;;;1.83;1.33;;;;;;;;;;5026653;28;20905;-57
2023/10/20 12:54:01;;;;;;;2.00;1.73;;;;;;;;;;5024770;28;20924;-58
2023/10/20 12:56:26;;;;;;;2.92;1.95;;;;;;;;;;5025646;28;20968;-58
2023/10/20 12:58:52;;;;;;;4.05;2.30;;;;;;;;;;5026718;28;20411;-58
2023/10/20 13:01:17;;;;;;;3.43;2.90;;;;;;;;;;5035822;28;20409;-58
2023/10/20 13:03:42;;;;;;;2.27;1.83;;;;;;;;;;5045695;28;20409;-58
2023/10/20 13:06:07;;;;;;;1.47;1.07;;;;;;;;;;5046395;28;20417;-58
2023/10/20 13:08:33;;;;;;;2.67;0.90;;;;;;;;;;5045101;28;20389;-58
2023/10/20 13:10:58;;;;;;;1.83;1.20;;;;;;;;;;5044889;28;20460;-58
2023/10/20 13:13:24;;;;;;;2.30;1.63;;;;;;;;;;5045403;28;20433;-58
2023/10/20 13:15:50;;;;;;;4.10;2.43;;;;;;;;;;5046110;28;20405;-58
2023/10/20 13:18:15;;;;;;;3.15;2.38;;;;;;;;;;5043011;28;20413;-58
2023/10/20 13:20:40;;;;;;;1.70;1.10;;;;;;;;;;5045736;28;20393;-58
2023/10/20 13:23:06;;;;;;;1.37;0.90;;;;;;;;;;5044019;28;20409;-58
2023/10/20 13:25:31;;;;;;;2.57;1.37;;;;;;;;;;5042065;28;20930;-58
2023/10/20 13:27:59;;;;;;;2.30;1.10;;;;;;;;;;5028127;28;20831;-58
2023/10/20 13:30:24;;;;;;;1.30;1.00;;;;;;;;;;5045446;28;20488;-58
2023/10/20 13:32:49;;;;;;;2.43;1.40;;;;;;;;;;5035869;28;20492;-58
2023/10/20 13:35:16;;;;;;;2.47;1.73;;;;;;;;;;5021627;28;20408;-57
2023/10/20 13:37:41;;;;;;;2.45;1.88;;;;;;;;;;5020663;28;20406;-57
2023/10/20 13:40:08;;;;;;;1.40;0.90;;;;;;;;;;5021514;28;20410;-58
2023/10/20 13:42:34;;;;;;;3.38;1.10;;;;;;;;;;5028810;28;20412;-57
2023/10/20 13:44:59;;;;;;;1.15;0.80;;;;;;;;;;5026920;28;20415;-57
2023/10/20 13:47:25;;;;;;;1.00;0.83;;;;;;;;;;5027847;28;20946;-57
2023/10/20 13:49:50;;;;;;;1.43;1.00;;;;;;;;;;5030489;28;20405;-57
2023/10/20 13:52:15;;;;;;;1.70;1.13;;;;;;;;;;5030243;28;20405;-57
2023/10/20 13:54:41;;;;;;;1.30;0.90;;;;;;;;;;5030743;28;20400;-58
2023/10/20 13:57:06;;;;;;;1.10;0.80;;;;;;;;;;5025203;28;20710;-58
2023/10/20 13:59:31;;;;;;;2.25;1.40;;;;;;;;;;5023911;28;21254;-58
2023/10/20 14:01:57;;;;;;;2.43;1.50;;;;;;;;;;5006089;28;20465;-58
2023/10/20 14:04:23;;;;;;;5.30;3.20;;;;;;;;;;5009889;28;20416;-58
2023/10/20 14:06:49;;;;;;;8.27;4.60;;;;;;;;;;5014231;28;20458;-58
2023/10/20 14:09:15;;;;;;;1.90;1.50;;;;;;;;;;5010941;28;20417;-58
2023/10/20 14:11:40;;;;;;;8.05;4.43;;;;;;;;;;5011003;28;20517;-58
2023/10/20 14:14:05;;;;;;;23.03;14.63;;;;;;;;;;5012288;28;20899;-58
2023/10/20 14:16:31;;;;;;;60.57;33.67;;;;;;;;;;5011719;28;20508;-58
2023/10/20 14:18:56;;;;;;;3.33;2.73;;;;;;;;;;5006262;28;20419;-58
2023/10/20 14:21:23;;;;;;;2.60;1.10;;;;;;;;;;5004907;28;20436;-58
2023/10/20 14:23:48;;;;;;;1.60;1.00;;;;;;;;;;5005415;28;20415;-58
2023/10/20 14:26:14;;;;;;;2.77;1.60;;;;;;;;;;5006940;28;20422;-58
2023/10/20 14:28:39;;;;;;;1.10;1.00;;;;;;;;;;5010086;28;20403;-58
2023/10/20 14:31:05;;;;;;;1.87;1.00;;;;;;;;;;5011829;28;20715;-58
2023/10/20 14:33:30;;;;;;;1.35;1.00;;;;;;;;;;5015303;28;20403;-58
2023/10/20 14:35:57;;;;;;;3.10;1.60;;;;;;;;;;5027282;28;20407;-58
2023/10/20 14:38:24;;;;;;;2.00;1.52;;;;;;;;;;5026463;28;20404;-58
2023/10/20 14:40:59;;;;;;;1.45;0.98;;;;;;;;;;5028451;28;20974;-58
2023/10/20 14:43:24;;;;;;;1.98;0.80;;;;;;;;;;5028045;28;20429;-58
2023/10/20 14:45:55;;;;;;;8.47;5.77;;;;;;;;;;5028050;28;20477;-58
2023/10/20 14:48:20;;;;;;;2.38;1.10;;;;;;;;;;5025917;28;21995;-58
2023/10/20 14:50:45;;;;;;;1.00;0.90;;;;;;;;;;5028946;28;20422;-58
2023/10/20 14:53:11;;;;;;;1.17;0.70;;;;;;;;;;5027284;28;20407;-58
2023/10/20 14:55:36;;;;;;;1.60;0.90;;;;;;;;;;5025665;28;20418;-58